createdAt,value
2018-01-10T00:00:32.053Z,90.40
2018-01-10T00:03:00.369Z,90.50
2018-01-10T00:05:28.665Z,90.60
2018-01-10T00:07:56.986Z,90.70
2018-01-10T00:10:25.276Z,90.80
2018-01-10T00:12:53.597Z,90.90
2018-01-10T00:15:21.896Z,91.00
2018-01-10T00:17:50.217Z,91.00
2018-01-10T00:20:18.512Z,91.10
2018-01-10T00:22:46.832Z,91.10
2018-01-10T00:25:15.128Z,91.10
2018-01-10T00:27:43.436Z,91.10
2018-01-10T00:30:11.728Z,91.00
2018-01-10T00:32:40.053Z,91.00
2018-01-10T00:35:08.352Z,91.00
2018-01-10T00:37:36.644Z,90.80
2018-01-10T00:40:04.976Z,90.70
2018-01-10T00:42:33.272Z,90.60
2018-01-10T00:45:01.590Z,90.60
2018-01-10T00:47:29.889Z,90.60
2018-01-10T00:49:58.207Z,90.50
2018-01-10T00:52:26.512Z,90.50
2018-01-10T00:54:54.836Z,90.50
2018-01-10T00:57:23.132Z,90.50
2018-01-10T00:59:51.448Z,90.50
2018-01-10T01:02:19.748Z,90.50
2018-01-10T01:04:48.065Z,90.40
2018-01-10T01:07:16.364Z,90.40
2018-01-10T01:09:44.688Z,90.40
2018-01-10T01:12:12.985Z,90.30
2018-01-10T01:14:41.281Z,90.20
2018-01-10T01:17:09.604Z,90.20
2018-01-10T01:19:37.908Z,90.20
2018-01-10T01:22:06.229Z,90.10
2018-01-10T01:24:34.516Z,89.90
2018-01-10T01:27:02.834Z,89.90
2018-01-10T01:29:31.129Z,89.50
2018-01-10T01:31:59.444Z,88.80
2018-01-10T01:34:27.737Z,88.50
2018-01-10T01:36:56.044Z,88.10
2018-01-10T01:39:24.333Z,87.90
2018-01-10T01:41:52.649Z,87.80
2018-01-10T01:44:20.949Z,88.00
2018-01-10T01:46:48.505Z,88.00
2018-01-10T01:49:16.793Z,88.20
2018-01-10T01:51:45.089Z,88.30
2018-01-10T01:54:13.416Z,88.60
2018-01-10T01:56:41.712Z,88.60
2018-01-10T01:59:10.033Z,88.80
2018-01-10T02:01:38.336Z,88.80
2018-01-10T02:04:05.888Z,88.80
2018-01-10T02:06:34.184Z,88.80
2018-01-10T02:09:02.508Z,88.80
2018-01-10T02:11:30.805Z,88.80
2018-01-10T02:13:59.116Z,88.80
2018-01-10T02:16:27.403Z,89.60
2018-01-10T02:18:55.731Z,88.70
2018-01-10T02:21:23.251Z,88.70
2018-01-10T02:23:51.542Z,88.50
2018-01-10T02:26:19.856Z,88.30
2018-01-10T02:28:48.143Z,88.20
2018-01-10T02:31:16.450Z,88.00
2018-01-10T02:33:44.738Z,87.90
2018-01-10T02:36:13.056Z,87.80
2018-01-10T02:38:41.349Z,87.80
2018-01-10T02:41:09.668Z,87.60
2018-01-10T02:43:37.967Z,87.60
2018-01-10T02:46:06.272Z,87.50
2018-01-10T02:48:34.570Z,87.60
2018-01-10T02:51:02.899Z,87.70
2018-01-10T02:53:31.200Z,87.20
2018-01-10T02:55:59.496Z,88.90
2018-01-10T02:58:27.812Z,88.40
2018-01-10T03:00:56.100Z,88.80
2018-01-10T03:03:24.420Z,88.90
2018-01-10T03:05:52.717Z,89.00
2018-01-10T03:08:21.028Z,89.10
2018-01-10T03:10:49.315Z,89.20
2018-01-10T03:13:17.636Z,89.30
2018-01-10T03:15:45.927Z,89.30
2018-01-10T03:18:14.240Z,89.30
2018-01-10T03:20:42.540Z,89.30
2018-01-10T03:23:10.874Z,89.20
2018-01-10T03:25:39.164Z,89.00
2018-01-10T03:28:07.457Z,89.00
2018-01-10T03:30:35.772Z,88.90
2018-01-10T03:33:04.069Z,88.80
2018-01-10T03:35:32.388Z,88.70
2018-01-10T03:38:01.153Z,88.70
2018-01-10T03:40:29.464Z,88.80
2018-01-10T03:42:57.760Z,88.80
2018-01-10T03:45:26.082Z,88.90
2018-01-10T03:47:54.376Z,88.90
2018-01-10T03:50:22.688Z,89.00
2018-01-10T03:52:50.983Z,88.90
2018-01-10T03:55:18.545Z,88.90
2018-01-10T03:57:46.836Z,88.80
2018-01-10T04:00:15.116Z,88.60
2018-01-10T04:02:43.428Z,88.30
2018-01-10T04:05:11.720Z,87.90
2018-01-10T04:07:40.040Z,87.60
2018-01-10T04:10:08.333Z,87.50
2018-01-10T04:12:36.656Z,87.60
2018-01-10T04:15:04.947Z,87.70
2018-01-10T04:17:33.259Z,87.70
2018-01-10T04:20:01.553Z,87.90
2018-01-10T04:22:29.897Z,87.80
2018-01-10T04:24:58.189Z,87.90
2018-01-10T04:27:26.482Z,88.10
2018-01-10T04:29:54.791Z,88.00
2018-01-10T04:32:23.079Z,87.90
2018-01-10T04:34:51.393Z,87.80
2018-01-10T04:37:19.688Z,87.40
2018-01-10T04:39:48.008Z,88.10
2018-01-10T04:42:16.296Z,87.50
2018-01-10T04:44:44.608Z,87.60
2018-01-10T04:47:12.905Z,87.30
2018-01-10T04:49:41.221Z,87.30
2018-01-10T04:52:09.513Z,87.40
2018-01-10T04:54:37.832Z,88.30
2018-01-10T04:57:06.144Z,87.50
2018-01-10T04:59:34.434Z,87.50
2018-01-10T05:02:02.744Z,87.10
2018-01-10T05:04:30.274Z,87.10
2018-01-10T05:06:58.592Z,86.80
2018-01-10T05:09:26.894Z,86.60
2018-01-10T05:11:55.215Z,86.30
2018-01-10T05:14:23.500Z,86.40
2018-01-10T05:16:51.820Z,87.50
2018-01-10T05:19:20.109Z,86.70
2018-01-10T05:21:48.437Z,86.70
2018-01-10T05:24:16.731Z,86.80
2018-01-10T05:26:45.026Z,87.00
2018-01-10T05:29:13.335Z,87.20
2018-01-10T05:31:41.623Z,87.20
2018-01-10T05:34:09.944Z,86.70
2018-01-10T05:36:38.241Z,87.20
2018-01-10T05:39:06.561Z,87.50
2018-01-10T05:41:34.848Z,87.70
2018-01-10T05:44:03.161Z,88.00
2018-01-10T05:46:31.452Z,88.20
2018-01-10T05:48:59.760Z,88.50
2018-01-10T05:51:28.048Z,88.80
2018-01-10T05:53:56.385Z,89.00
2018-01-10T05:56:24.676Z,89.30
2018-01-10T05:58:52.960Z,89.60
2018-01-10T06:01:21.277Z,89.70
2018-01-10T06:03:49.575Z,90.00
2018-01-10T06:06:17.894Z,90.00
2018-01-10T06:08:46.200Z,89.80
2018-01-10T06:11:14.517Z,90.00
2018-01-10T06:13:42.821Z,90.00
2018-01-10T06:16:11.132Z,89.90
2018-01-10T06:18:39.428Z,89.90
2018-01-10T06:21:07.749Z,89.70
2018-01-10T06:23:36.036Z,89.20
2018-01-10T06:26:04.350Z,88.30
2018-01-10T06:28:32.648Z,88.20
2018-01-10T06:31:00.965Z,88.30
2018-01-10T06:33:29.260Z,88.40
2018-01-10T06:35:57.557Z,88.20
2018-01-10T06:38:25.884Z,88.30
2018-01-10T06:40:54.180Z,88.40
2018-01-10T06:43:22.492Z,88.50
2018-01-10T06:45:50.780Z,88.60
2018-01-10T06:48:19.094Z,88.80
2018-01-10T06:50:47.389Z,88.80
2018-01-10T06:53:15.704Z,88.80
2018-01-10T06:55:44.000Z,88.80
2018-01-10T06:58:12.316Z,89.00
2018-01-10T07:00:40.609Z,89.20
2018-01-10T07:03:08.173Z,89.20
2018-01-10T07:05:36.469Z,89.30
2018-01-10T07:08:04.765Z,89.10
2018-01-10T07:10:33.084Z,89.10
2018-01-10T07:13:01.376Z,89.00
2018-01-10T07:15:29.696Z,88.90
2018-01-10T07:17:57.987Z,88.80
2018-01-10T07:20:26.301Z,88.60
2018-01-10T07:22:54.600Z,88.40
2018-01-10T07:25:22.909Z,88.50
2018-01-10T07:27:51.197Z,88.60
2018-01-10T07:30:19.508Z,88.50
2018-01-10T07:32:47.792Z,88.40
2018-01-10T07:35:16.124Z,88.40
2018-01-10T07:37:44.416Z,88.80
2018-01-10T07:40:12.708Z,88.40
2018-01-10T07:42:41.020Z,88.50
2018-01-10T07:45:09.312Z,88.40
2018-01-10T07:47:37.628Z,88.30
2018-01-10T07:50:05.920Z,88.10
2018-01-10T07:52:34.236Z,87.90
2018-01-10T07:55:02.527Z,87.50
2018-01-10T07:57:30.846Z,87.40
2018-01-10T07:59:59.156Z,87.30
2018-01-10T08:02:27.494Z,87.30
2018-01-10T08:04:55.789Z,87.10
2018-01-10T08:07:24.080Z,87.20
2018-01-10T08:09:52.396Z,87.10
2018-01-10T08:12:20.686Z,87.80
2018-01-10T08:14:49.000Z,86.80
2018-01-10T08:17:17.298Z,86.80
2018-01-10T08:19:45.624Z,86.60
2018-01-10T08:22:13.908Z,86.40
2018-01-10T08:24:42.221Z,86.20
2018-01-10T08:27:10.513Z,86.20
2018-01-10T08:29:38.824Z,86.30
2018-01-10T08:32:07.123Z,86.30
2018-01-10T08:34:35.458Z,86.20
2018-01-10T08:37:03.760Z,86.10
2018-01-10T08:39:32.052Z,86.00
2018-01-10T08:42:00.372Z,86.00
2018-01-10T08:44:28.669Z,86.00
2018-01-10T08:46:56.996Z,85.90
2018-01-10T08:49:25.328Z,85.40
2018-01-10T08:51:53.648Z,85.40
2018-01-10T08:54:21.966Z,85.40
2018-01-10T08:56:50.281Z,85.30
2018-01-10T08:59:18.603Z,85.30
2018-01-10T09:01:46.897Z,85.10
2018-01-10T09:04:14.456Z,85.10
2018-01-10T09:06:42.752Z,85.00
2018-01-10T09:09:11.068Z,84.50
2018-01-10T09:11:39.361Z,84.60
2018-01-10T09:14:07.660Z,84.70
2018-01-10T09:16:35.993Z,84.60
2018-01-10T09:19:04.294Z,84.50
2018-01-10T09:21:32.619Z,83.80
2018-01-10T09:24:00.941Z,84.80
2018-01-10T09:26:29.260Z,84.30
2018-01-10T09:28:57.551Z,84.30
2018-01-10T09:31:25.876Z,84.00
2018-01-10T09:33:54.184Z,84.00
2018-01-10T09:36:22.505Z,83.60
2018-01-10T09:38:50.801Z,83.30
2018-01-10T09:41:19.127Z,83.00
2018-01-10T09:43:47.427Z,83.10
2018-01-10T09:46:15.764Z,83.10
2018-01-10T09:48:44.060Z,83.00
2018-01-10T09:51:11.625Z,82.90
2018-01-10T09:53:39.926Z,82.90
2018-01-10T09:56:08.248Z,82.70
2018-01-10T09:58:36.563Z,82.80
2018-01-10T10:01:04.893Z,82.60
2018-01-10T10:03:33.193Z,82.30
2018-01-10T10:06:01.517Z,82.10
2018-01-10T10:08:29.815Z,82.10
2018-01-10T10:10:58.141Z,82.00
2018-01-10T10:13:26.430Z,81.70
2018-01-10T10:15:54.756Z,81.70
2018-01-10T10:18:23.048Z,81.60
2018-01-10T10:20:51.373Z,81.40
2018-01-10T10:23:19.667Z,81.00
2018-01-10T10:25:47.984Z,80.70
2018-01-10T10:28:16.282Z,80.60
2018-01-10T10:30:44.596Z,80.00
2018-01-10T10:33:12.895Z,79.20
2018-01-10T10:35:41.218Z,79.20
2018-01-10T10:38:09.540Z,79.10
2018-01-10T10:40:37.860Z,79.00
2018-01-10T10:43:06.158Z,78.60
2018-01-10T10:45:34.484Z,78.50
2018-01-10T10:48:02.781Z,78.10
2018-01-10T10:50:31.110Z,78.00
2018-01-10T10:52:59.407Z,78.10
2018-01-10T10:55:27.732Z,77.30
2018-01-10T10:57:56.021Z,76.70
2018-01-10T11:00:28.149Z,76.60
2018-01-10T11:02:56.449Z,76.60
2018-01-10T11:05:24.781Z,76.80
2018-01-10T11:07:53.093Z,77.00
2018-01-10T11:10:21.427Z,77.90
2018-01-10T11:12:49.730Z,77.00
2018-01-10T11:15:18.061Z,76.80
2018-01-10T11:17:46.388Z,77.60
2018-01-10T11:20:14.679Z,77.70
2018-01-10T11:22:43.005Z,77.60
2018-01-10T11:25:11.299Z,77.60
2018-01-10T11:27:39.621Z,77.70
2018-01-10T11:30:07.909Z,77.80
2018-01-10T11:32:36.232Z,77.90
2018-01-10T11:35:04.536Z,78.10
2018-01-10T11:37:32.852Z,78.00
2018-01-10T11:40:01.145Z,77.80
2018-01-10T11:42:29.468Z,77.40
2018-01-10T11:44:57.000Z,77.30
2018-01-10T11:47:25.320Z,76.00
2018-01-10T11:49:53.623Z,75.50
2018-01-10T11:52:21.937Z,74.60
2018-01-10T11:54:50.236Z,74.20
2018-01-10T11:57:18.565Z,73.40
2018-01-10T11:59:46.852Z,73.10
2018-01-10T12:02:15.177Z,72.80
2018-01-10T12:04:43.472Z,72.70
2018-01-10T12:07:11.788Z,72.60
2018-01-10T12:09:40.089Z,72.00
2018-01-10T12:12:08.416Z,71.70
2018-01-10T12:14:36.711Z,71.40
2018-01-10T12:17:05.024Z,70.90
2018-01-10T12:19:33.315Z,70.70
2018-01-10T12:22:01.636Z,71.30
2018-01-10T12:24:29.928Z,71.90
2018-01-10T12:26:58.247Z,71.80
2018-01-10T12:29:26.535Z,71.40
2018-01-10T12:31:54.848Z,71.70
2018-01-10T12:34:23.136Z,71.50
2018-01-10T12:36:50.686Z,71.60
2018-01-10T12:39:18.981Z,72.50
2018-01-10T12:41:47.304Z,72.50
2018-01-10T12:44:15.595Z,72.60
2018-01-10T12:46:43.921Z,73.10
2018-01-10T12:49:12.216Z,73.40
2018-01-10T12:51:39.764Z,73.40
2018-01-10T12:54:08.061Z,72.20
2018-01-10T12:56:36.377Z,71.60
2018-01-10T12:59:04.665Z,71.40
2018-01-10T13:01:32.988Z,72.10
2018-01-10T13:04:02.342Z,71.20
2018-01-10T13:06:30.919Z,71.40
2018-01-10T13:08:59.871Z,71.40
2018-01-10T13:11:28.395Z,71.30
2018-01-10T13:13:56.750Z,70.60
2018-01-10T13:16:24.272Z,70.60
2018-01-10T13:18:52.604Z,71.10
2018-01-10T13:21:20.916Z,71.10
2018-01-10T13:23:49.232Z,71.40
2018-01-10T13:26:17.522Z,71.80
2018-01-10T13:28:45.848Z,72.00
2018-01-10T13:31:14.136Z,71.90
2018-01-10T13:33:42.457Z,71.70
2018-01-10T13:36:10.748Z,70.80
2018-01-10T13:38:39.069Z,69.90
2018-01-10T13:41:07.374Z,70.00
2018-01-10T13:43:35.696Z,70.10
2018-01-10T13:46:03.988Z,69.90
2018-01-10T13:48:32.307Z,69.80
2018-01-10T13:51:00.598Z,69.90
2018-01-10T13:53:28.920Z,69.90
2018-01-10T13:55:57.216Z,70.50
2018-01-10T13:58:25.541Z,71.40
2018-01-10T14:00:53.832Z,72.10
2018-01-10T14:03:22.153Z,72.20
2018-01-10T14:05:49.717Z,72.20
2018-01-10T14:08:18.047Z,73.10
2018-01-10T14:10:46.345Z,73.60
2018-01-10T14:13:14.666Z,73.90
2018-01-10T14:15:42.969Z,74.10
2018-01-10T14:18:11.291Z,73.80
2018-01-10T14:20:39.595Z,73.80
2018-01-10T14:23:07.916Z,74.00
2018-01-10T14:25:36.208Z,74.10
2018-01-10T14:28:04.536Z,74.40
2018-01-10T14:30:32.828Z,74.10
2018-01-10T14:33:01.145Z,73.90
2018-01-10T14:35:29.437Z,74.00
2018-01-10T14:37:56.994Z,74.00
2018-01-10T14:40:25.297Z,74.80
2018-01-10T14:42:53.607Z,74.70
2018-01-10T14:45:21.137Z,74.70
2018-01-10T14:47:49.463Z,75.30
2018-01-10T14:50:17.764Z,75.40
2018-01-10T14:52:45.331Z,75.40
2018-01-10T14:55:13.635Z,75.70
2018-01-10T14:57:41.956Z,76.00
2018-01-10T15:00:10.250Z,76.10
2018-01-10T15:02:38.566Z,76.20
2018-01-10T15:05:06.853Z,76.20
2018-01-10T15:07:34.418Z,76.20
2018-01-10T15:10:02.743Z,76.50
2018-01-10T15:12:31.049Z,76.60
2018-01-10T15:14:59.397Z,76.60
2018-01-10T15:17:27.698Z,76.60
2018-01-10T15:19:56.045Z,76.40
2018-01-10T15:22:24.353Z,76.30
2018-01-10T15:24:52.668Z,76.30
2018-01-10T15:27:20.964Z,76.60
2018-01-10T15:29:49.285Z,76.80
2018-01-10T15:32:17.572Z,76.70
2018-01-10T15:34:45.124Z,76.80
2018-01-10T15:37:13.422Z,77.20
2018-01-10T15:39:41.744Z,77.30
2018-01-10T15:42:10.037Z,77.20
2018-01-10T15:44:38.354Z,77.50
2018-01-10T15:47:06.644Z,77.70
2018-01-10T15:49:34.960Z,78.00
2018-01-10T15:52:03.250Z,78.10
2018-01-10T15:54:30.810Z,78.10
2018-01-10T15:56:59.104Z,78.30
2018-01-10T15:59:27.419Z,78.60
2018-01-10T16:01:55.711Z,78.70
2018-01-10T16:04:24.036Z,78.40
2018-01-10T16:06:52.329Z,78.50
2018-01-10T16:09:20.647Z,78.70
2018-01-10T16:11:48.187Z,78.70
2018-01-10T16:14:16.515Z,78.80
2018-01-10T16:16:44.812Z,79.20
2018-01-10T16:19:13.131Z,79.40
2018-01-10T16:21:41.432Z,79.60
2018-01-10T16:24:08.996Z,79.60
2018-01-10T16:26:37.280Z,80.10
2018-01-10T16:29:05.612Z,80.30
2018-01-10T16:31:33.900Z,80.40
2018-01-10T16:34:02.266Z,80.70
2018-01-10T16:36:30.536Z,80.70
2018-01-10T16:38:58.852Z,80.70
2018-01-10T16:41:27.144Z,80.70
2018-01-10T16:43:55.468Z,80.50
2018-01-10T16:46:23.771Z,80.70
2018-01-10T16:48:52.085Z,80.60
2018-01-10T16:51:20.380Z,80.60
2018-01-10T16:53:48.701Z,80.60
2018-01-10T16:56:16.997Z,80.50
2018-01-10T16:58:45.312Z,80.70
2018-01-10T17:01:13.608Z,80.90
2018-01-10T17:03:41.928Z,80.80
2018-01-10T17:06:10.229Z,81.00
2018-01-10T17:08:38.529Z,81.00
2018-01-10T17:11:06.853Z,81.00
2018-01-10T17:13:35.154Z,81.20
2018-01-10T17:16:03.481Z,81.10
2018-01-10T17:18:31.773Z,81.10
2018-01-10T17:20:59.337Z,81.10
2018-01-10T17:23:27.620Z,81.30
2018-01-10T17:25:55.953Z,81.40
2018-01-10T17:28:24.257Z,81.60
2018-01-10T17:30:52.585Z,81.60
2018-01-10T17:33:20.121Z,81.60
2018-01-10T17:35:48.432Z,81.60
2018-01-10T17:38:16.729Z,81.60
2018-01-10T17:40:45.052Z,81.70
2018-01-10T17:43:12.593Z,81.70
2018-01-10T17:45:40.971Z,82.10
2018-01-10T17:48:09.253Z,82.30
2018-01-10T17:50:37.581Z,82.60
2018-01-10T17:53:05.876Z,82.80
2018-01-10T17:55:34.204Z,83.20
2018-01-10T17:58:02.510Z,83.50
2018-01-10T18:00:30.836Z,83.60
2018-01-10T18:02:59.132Z,83.70
2018-01-10T18:05:27.464Z,83.60
2018-01-10T18:07:55.791Z,83.60
2018-01-10T18:10:24.124Z,83.70
2018-01-10T18:12:52.426Z,83.80
2018-01-10T18:15:20.769Z,83.90
2018-01-10T18:17:49.072Z,84.10
2018-01-10T18:20:17.400Z,84.90
2018-01-10T18:22:45.696Z,84.20
2018-01-10T18:25:14.009Z,84.20
2018-01-10T18:27:42.310Z,84.40
2018-01-10T18:30:10.628Z,84.70
2018-01-10T18:32:38.930Z,85.00
2018-01-10T18:35:07.250Z,85.30
2018-01-10T18:37:35.540Z,85.50
2018-01-10T18:40:03.880Z,85.60
2018-01-10T18:42:32.168Z,85.70
2018-01-10T18:45:00.484Z,86.00
2018-01-10T18:47:28.880Z,86.20
2018-01-10T18:49:57.195Z,86.30
2018-01-10T18:52:25.504Z,86.30
2018-01-10T18:54:53.874Z,86.40
2018-01-10T18:57:22.252Z,86.50
2018-01-10T18:59:50.613Z,86.50
2018-01-10T19:02:18.149Z,86.50
2018-01-10T19:04:46.449Z,86.90
2018-01-10T19:07:14.776Z,87.00
2018-01-10T19:09:43.072Z,87.20
2018-01-10T19:12:11.397Z,87.40
2018-01-10T19:14:39.705Z,87.70
2018-01-10T19:17:08.029Z,87.90
2018-01-10T19:19:36.338Z,88.20
2018-01-10T19:22:04.665Z,88.40
2018-01-10T19:24:32.961Z,88.50
2018-01-10T19:27:01.287Z,88.60
2018-01-10T19:29:29.581Z,88.90
2018-01-10T19:31:57.912Z,89.10
2018-01-10T19:34:25.448Z,89.10
2018-01-10T19:36:53.776Z,89.70
2018-01-10T19:39:22.076Z,89.80
2018-01-10T19:41:50.391Z,90.00
2018-01-10T19:44:18.694Z,90.00
2018-01-10T19:46:47.026Z,90.10
2018-01-10T19:49:15.324Z,90.10
2018-01-10T19:51:43.649Z,90.20
2018-01-10T19:54:11.953Z,90.20
2018-01-10T19:56:40.283Z,90.20
2018-01-10T19:59:08.581Z,90.20
2018-01-10T20:01:36.909Z,90.30
2018-01-10T20:04:05.446Z,90.30
2018-01-10T20:06:33.778Z,90.40
2018-01-10T20:09:02.072Z,90.30
2018-01-10T20:11:30.393Z,90.20
2018-01-10T20:13:58.688Z,90.10
2018-01-10T20:16:27.003Z,90.00
2018-01-10T20:18:55.292Z,89.80
2018-01-10T20:21:23.612Z,89.80
2018-01-10T20:23:51.896Z,89.70
2018-01-10T20:26:20.217Z,89.60
2018-01-10T20:28:48.508Z,89.50
2018-01-10T20:31:16.833Z,89.30
2018-01-10T20:33:45.124Z,89.40
2018-01-10T20:36:13.452Z,89.20
2018-01-10T20:38:41.749Z,89.20
2018-01-10T20:41:09.311Z,89.20
2018-01-10T20:43:37.614Z,89.40
2018-01-10T20:46:05.943Z,89.30
2018-01-10T20:48:34.232Z,89.20
2018-01-10T20:51:02.551Z,89.10
2018-01-10T20:53:30.847Z,88.90
2018-01-10T20:55:59.165Z,88.90
2018-01-10T20:58:27.457Z,88.80
2018-01-10T21:00:55.777Z,88.80
2018-01-10T21:03:23.313Z,88.80
2018-01-10T21:05:51.606Z,88.60
2018-01-10T21:08:19.928Z,88.60
2018-01-10T21:10:48.233Z,88.80
2018-01-10T21:13:16.544Z,88.80
2018-01-10T21:15:44.841Z,88.90
2018-01-10T21:18:13.163Z,88.90
2018-01-10T21:20:41.461Z,88.90
2018-01-10T21:23:09.776Z,89.00
2018-01-10T21:25:38.068Z,89.00
2018-01-10T21:28:06.388Z,89.20
2018-01-10T21:30:34.676Z,89.30
2018-01-10T21:33:03.009Z,89.30
2018-01-10T21:35:31.308Z,89.40
2018-01-10T21:37:59.644Z,89.40
2018-01-10T21:40:27.939Z,89.50
2018-01-10T21:42:56.252Z,89.40
2018-01-10T21:45:24.544Z,89.50
2018-01-10T21:47:52.861Z,89.60
2018-01-10T21:50:21.161Z,89.60
2018-01-10T21:52:49.473Z,89.70
2018-01-10T21:55:17.767Z,89.80
2018-01-10T21:57:46.085Z,89.80
2018-01-10T22:00:14.375Z,89.80
2018-01-10T22:02:42.696Z,89.80
2018-01-10T22:05:10.994Z,89.80
2018-01-10T22:07:39.308Z,89.90
2018-01-10T22:10:07.600Z,90.00
2018-01-10T22:12:35.920Z,90.00
2018-01-10T22:15:04.212Z,90.10
2018-01-10T22:17:32.534Z,90.10
2018-01-10T22:20:00.833Z,90.10
2018-01-10T22:22:28.392Z,90.10
2018-01-10T22:24:56.680Z,90.10
2018-01-10T22:27:25.001Z,90.10
2018-01-10T22:29:53.292Z,90.10
2018-01-10T22:32:21.608Z,90.30
2018-01-10T22:34:49.893Z,90.40
2018-01-10T22:37:18.216Z,90.50
2018-01-10T22:39:46.504Z,90.50
2018-01-10T22:42:14.819Z,90.50
2018-01-10T22:44:43.113Z,90.50
2018-01-10T22:47:11.440Z,90.50
2018-01-10T22:49:39.725Z,90.50
2018-01-10T22:52:08.045Z,90.50
2018-01-10T22:54:35.565Z,90.50
2018-01-10T22:57:03.888Z,90.70
2018-01-10T22:59:32.179Z,90.70
2018-01-10T23:02:00.500Z,90.60
2018-01-10T23:04:28.821Z,90.60
2018-01-10T23:06:57.109Z,90.60
2018-01-10T23:09:25.427Z,90.60
2018-01-10T23:11:53.721Z,90.70
2018-01-10T23:14:21.272Z,90.50
2018-01-10T23:16:49.565Z,90.90
2018-01-10T23:19:17.884Z,90.90
2018-01-10T23:21:46.168Z,91.00
2018-01-10T23:24:14.477Z,91.10
2018-01-10T23:26:42.034Z,91.00
2018-01-10T23:29:10.334Z,91.10
2018-01-10T23:31:38.621Z,91.10
2018-01-10T23:34:06.940Z,91.10
2018-01-10T23:36:35.229Z,91.10
2018-01-10T23:39:03.549Z,91.00
2018-01-10T23:41:31.832Z,91.10
2018-01-10T23:44:00.140Z,91.10
2018-01-10T23:46:28.420Z,91.10
2018-01-10T23:48:56.735Z,91.40
2018-01-10T23:51:25.026Z,91.50
2018-01-10T23:53:53.347Z,91.50
2018-01-10T23:56:21.641Z,91.50
2018-01-10T23:58:49.953Z,91.50
